Time;durP1;ratioP1;P1;durP2;ratioP2;P2;SDS_P1;SDS_P2;PMS_P1;PMS_P2;Temp;Humidity;BMP_temperature;BMP_pressure;BME280_temperature;BME280_humidity;BME280_pressure;Samples;Min_cycle;Max_cycle;Signal;HPM_P1;HPM_P2
2022/04/06 00:01:36;;;;;;;11.75;6.50;;;;;;;10.29;68.24;100360.63;5076831;28;20077;-81
2022/04/06 00:04:02;;;;;;;10.73;6.38;;;;;;;10.25;68.38;100361.00;5094920;28;20031;-82
2022/04/06 00:06:28;;;;;;;13.35;6.57;;;;;;;9.98;68.22;100314.91;5077306;28;20028;-81
2022/04/06 00:08:53;;;;;;;21.50;8.43;;;;;;;10.18;68.28;100349.91;5076425;28;20051;-82
2022/04/06 00:11:19;;;;;;;13.32;7.28;;;;;;;9.98;68.58;100331.03;5094485;28;20043;-81
2022/04/06 00:13:44;;;;;;;16.25;6.22;;;;;;;9.98;68.25;100336.41;5094387;28;20020;-81
2022/04/06 00:16:10;;;;;;;15.23;7.25;;;;;;;10.10;68.08;100355.03;5094581;28;20023;-82
2022/04/06 00:18:36;;;;;;;14.77;7.00;;;;;;;9.75;68.09;100325.72;5093881;28;20137;-83
2022/04/06 00:21:05;;;;;;;13.35;6.90;;;;;;;10.03;68.16;100371.81;5059864;28;20038;-81
2022/04/06 00:23:30;;;;;;;12.68;6.05;;;;;;;10.06;68.14;100369.72;5076396;28;20023;-80
2022/04/06 00:25:56;;;;;;;19.88;8.48;;;;;;;10.01;67.98;100380.00;5060052;28;20043;-81
2022/04/06 00:28:22;;;;;;;26.15;8.07;;;;;;;9.91;67.85;100378.22;5094659;28;20110;-82
2022/04/06 00:30:48;;;;;;;23.25;7.55;;;;;;;9.59;68.20;100357.53;5076436;28;20024;-80
2022/04/06 00:33:13;;;;;;;16.08;7.22;;;;;;;9.48;68.63;100343.28;5094233;28;20038;-80
2022/04/06 00:35:42;;;;;;;11.75;7.28;;;;;;;9.66;68.61;100364.09;5094626;28;20087;-81
2022/04/06 00:38:08;;;;;;;18.33;7.15;;;;;;;9.71;68.48;100372.63;5098736;28;20468;-82
2022/04/06 00:40:35;;;;;;;14.93;7.68;;;;;;;9.67;68.37;100370.31;5083708;28;20084;-80
2022/04/06 00:43:13;;;;;;;16.67;8.35;;;;;;;9.69;68.52;100379.94;5098384;28;20024;-82
2022/04/06 00:45:39;;;;;;;16.38;8.27;;;;;;;9.71;68.40;100382.53;5079417;28;20032;-81
2022/04/06 00:48:06;;;;;;;14.40;9.05;;;;;;;9.63;68.48;100363.50;5094350;28;20039;-81
2022/04/06 00:50:32;;;;;;;16.60;7.68;;;;;;;9.69;68.45;100385.31;5094209;28;20085;-81
2022/04/06 00:52:59;;;;;;;16.13;7.55;;;;;;;9.67;68.29;100384.59;5093864;28;20028;-80
2022/04/06 00:55:29;;;;;;;9.43;6.95;;;;;;;9.70;68.36;100395.09;5075579;28;20024;-81
2022/04/06 00:57:56;;;;;;;11.32;7.20;;;;;;;9.43;68.27;100350.84;5093535;28;20028;-81
2022/04/06 01:00:22;;;;;;;14.60;8.35;;;;;;;9.19;68.65;100326.84;5093495;28;20027;-81
2022/04/06 01:02:48;;;;;;;14.48;7.35;;;;;;;9.42;68.59;100360.72;5093535;28;20020;-82
2022/04/06 01:05:14;;;;;;;15.05;7.05;;;;;;;9.18;68.58;100330.50;5093752;28;20016;-81
2022/04/06 01:07:47;;;;;;;12.30;7.82;;;;;;;9.51;68.57;100386.00;5075334;28;20089;-81
2022/04/06 01:10:12;;;;;;;13.75;8.07;;;;;;;9.54;69.01;100383.06;5075269;28;20051;-80
2022/04/06 01:12:39;;;;;;;12.32;6.38;;;;;;;9.32;69.32;100370.50;5074840;28;20474;-80
2022/04/06 01:15:06;;;;;;;14.93;7.70;;;;;;;9.26;69.01;100345.00;5074452;28;20051;-80
2022/04/06 01:17:33;;;;;;;16.30;7.13;;;;;;;9.54;69.21;100383.88;5074518;28;20484;-82
2022/04/06 01:20:02;;;;;;;14.30;7.47;;;;;;;9.51;69.31;100377.94;5075550;28;20036;-80
2022/04/06 01:22:27;;;;;;;12.95;7.28;;;;;;;9.49;68.79;100378.03;5093054;28;20475;-82
2022/04/06 01:24:54;;;;;;;11.00;7.72;;;;;;;9.53;68.50;100378.66;5092514;28;20038;-81
2022/04/06 01:27:25;;;;;;;13.90;8.32;;;;;;;9.48;68.73;100370.97;5093263;28;20020;-81
2022/04/06 01:29:52;;;;;;;13.63;8.23;;;;;;;9.55;68.39;100384.75;5093407;28;20095;-83
2022/04/06 01:32:25;;;;;;;13.95;7.95;;;;;;;9.39;68.40;100339.50;5093398;28;20030;-82
2022/04/06 01:34:54;;;;;;;15.82;8.07;;;;;;;9.57;68.30;100380.94;5093361;28;20418;-82
2022/04/06 01:37:21;;;;;;;14.57;8.95;;;;;;;9.62;68.07;100378.75;5093036;28;20089;-82
2022/04/06 01:39:49;;;;;;;16.65;9.25;;;;;;;9.63;68.28;100380.44;5075089;28;20034;-81
2022/04/06 01:42:17;;;;;;;14.82;8.82;;;;;;;9.51;68.33;100359.97;5093133;28;20023;-81
2022/04/06 01:44:46;;;;;;;13.93;9.68;;;;;;;9.73;68.35;100399.34;5093364;28;20027;-82
2022/04/06 01:47:13;;;;;;;16.85;10.70;;;;;;;9.60;68.16;100369.13;5075280;28;20085;-81
2022/04/06 01:52:23;;;;;;;23.70;10.48;;;;;;;9.53;67.90;100347.28;5093829;28;20039;-81
2022/04/06 01:55:00;;;;;;;23.63;12.90;;;;;;;9.86;67.54;100400.06;5095166;28;20020;-80
2022/04/06 01:57:26;;;;;;;24.95;13.82;;;;;;;9.82;67.43;100402.16;5075954;28;20032;-80
2022/04/06 01:59:52;;;;;;;19.70;13.27;;;;;;;9.61;67.32;100366.31;5074963;28;20504;-82
2022/04/06 02:02:19;;;;;;;23.95;13.50;;;;;;;9.68;66.90;100393.50;5077199;28;20048;-81
2022/04/06 02:04:46;;;;;;;26.67;14.90;;;;;;;9.65;67.23;100386.56;5104900;28;20027;-82
2022/04/06 02:07:13;;;;;;;27.85;15.35;;;;;;;9.75;67.28;100394.72;5102416;28;20107;-81
2022/04/06 02:09:41;;;;;;;27.90;15.25;;;;;;;9.74;66.90;100393.88;5102624;28;20577;-81
2022/04/06 02:12:08;;;;;;;30.63;15.57;;;;;;;9.41;67.14;100383.19;5075993;28;20116;-80
2022/04/06 02:14:33;;;;;;;27.27;15.52;;;;;;;9.26;67.06;100349.53;5093039;28;20428;-81
2022/04/06 02:17:00;;;;;;;32.72;16.25;;;;;;;9.52;67.15;100399.28;5075621;28;20113;-80
2022/04/06 02:19:26;;;;;;;22.85;15.25;;;;;;;9.49;67.30;100399.53;5075228;28;20036;-80
2022/04/06 02:21:52;;;;;;;35.85;18.27;;;;;;;9.24;66.87;100373.78;5096607;28;20097;-81
2022/04/06 02:24:18;;;;;;;36.60;19.45;;;;;;;9.24;67.66;100370.25;5096682;28;20034;-82
2022/04/06 02:26:45;;;;;;;37.30;17.27;;;;;;;9.07;67.40;100370.75;5096728;28;20052;-81
2022/04/06 02:29:10;;;;;;;37.00;17.05;;;;;;;9.19;68.06;100396.59;5096626;28;20032;-81
2022/04/06 02:31:36;;;;;;;31.05;17.48;;;;;;;9.27;67.64;100399.53;5044666;28;20478;-79
2022/04/06 02:34:01;;;;;;;32.45;16.20;;;;;;;9.25;67.49;100401.47;5096322;28;20110;-81
2022/04/06 02:36:28;;;;;;;32.20;16.35;;;;;;;9.19;67.40;100401.97;5081194;28;20028;-81
2022/04/06 02:38:54;;;;;;;31.55;16.10;;;;;;;8.73;67.88;100357.31;5096845;28;20128;-80
2022/04/06 02:41:19;;;;;;;24.83;14.38;;;;;;;9.05;68.28;100400.34;5096369;28;20082;-81
2022/04/06 02:43:45;;;;;;;27.92;16.05;;;;;;;8.92;68.13;100371.97;5095536;28;20462;-81
2022/04/06 02:46:10;;;;;;;21.48;14.40;;;;;;;9.06;68.86;100398.53;5096306;28;20024;-80
2022/04/06 02:48:37;;;;;;;27.63;14.05;;;;;;;9.00;69.50;100401.69;5096205;28;20477;-81
2022/04/06 02:51:03;;;;;;;27.98;15.27;;;;;;;8.86;70.04;100383.16;5097325;28;20031;-88
2022/04/06 02:53:28;;;;;;;24.48;14.73;;;;;;;8.94;70.57;100405.72;5078843;28;20035;-88
2022/04/06 02:55:58;;;;;;;25.45;15.13;;;;;;;9.02;71.00;100399.78;5097420;28;20032;-89
2022/04/06 02:58:23;;;;;;;27.30;17.25;;;;;;;9.09;70.89;100400.97;5098415;28;20389;-88
2022/04/06 03:00:49;;;;;;;32.38;16.40;;;;;;;8.96;71.11;100384.16;5097360;28;20024;-88
2022/04/06 03:03:14;;;;;;;24.77;14.82;;;;;;;8.95;71.39;100367.22;5097522;28;20031;-88
2022/04/06 03:05:41;;;;;;;33.00;16.63;;;;;;;8.73;71.16;100325.13;5079238;28;20094;-88
2022/04/06 03:08:07;;;;;;;23.30;16.10;;;;;;;9.08;70.74;100373.28;5096399;28;20087;-89
2022/04/06 03:10:33;;;;;;;23.85;15.98;;;;;;;9.22;70.25;100397.22;5098461;28;20035;-89
2022/04/06 03:13:00;;;;;;;26.63;15.50;;;;;;;9.13;69.94;100372.94;5080953;28;20539;-88
2022/04/06 03:15:26;;;;;;;31.58;15.80;;;;;;;8.95;68.98;100372.56;5097299;28;20098;-88
2022/04/06 03:17:51;;;;;;;32.60;15.52;;;;;;;8.79;69.17;100355.97;5079377;28;20082;-88
2022/04/06 03:20:18;;;;;;;28.63;17.70;;;;;;;9.06;69.40;100411.94;5079338;28;20070;-88
2022/04/06 03:22:44;;;;;;;28.08;16.92;;;;;;;8.91;69.27;100416.69;5078745;28;20077;-88
2022/04/06 03:25:11;;;;;;;28.85;16.77;;;;;;;8.89;70.02;100417.78;5097243;28;20024;-89
2022/04/06 03:27:37;;;;;;;25.00;16.40;;;;;;;8.87;69.91;100417.91;5079294;28;20028;-89
2022/04/06 03:30:05;;;;;;;39.65;17.05;;;;;;;8.63;69.41;100377.75;5109102;28;20054;-87
2022/04/06 03:32:30;;;;;;;41.53;18.77;;;;;;;8.81;69.82;100391.56;5111725;28;20062;-85
2022/04/06 03:34:55;;;;;;;30.45;16.55;;;;;;;8.82;69.26;100384.38;5112353;28;20028;-87
2022/04/06 03:37:21;;;;;;;25.90;17.58;;;;;;;8.78;69.30;100359.63;5084392;28;20039;-88
2022/04/06 03:39:48;;;;;;;58.10;21.67;;;;;;;9.20;68.91;100427.84;5099038;28;20107;-88
2022/04/06 03:42:16;;;;;;;32.25;17.35;;;;;;;9.15;68.98;100432.69;5080709;28;20020;-89
2022/04/06 03:44:43;;;;;;;37.25;19.52;;;;;;;9.00;68.82;100407.94;5093039;28;20054;-87
2022/04/06 03:47:09;;;;;;;37.50;18.73;;;;;;;9.19;68.55;100434.16;5109872;28;20024;-88
2022/04/06 03:49:35;;;;;;;38.65;18.73;;;;;;;9.00;68.52;100390.97;5096974;28;20024;-87
2022/04/06 03:52:00;;;;;;;33.03;16.23;;;;;;;9.20;68.43;100411.75;5098759;28;20053;-88
2022/04/06 03:54:26;;;;;;;29.63;16.05;;;;;;;9.15;68.20;100411.22;5108273;28;20051;-89
2022/04/06 03:56:54;;;;;;;52.55;20.30;;;;;;;9.28;68.60;100434.28;5078484;28;20028;-88
2022/04/06 03:59:20;;;;;;;48.00;18.10;;;;;;;9.47;67.87;100444.44;5061347;28;20116;-89
2022/04/06 04:01:47;;;;;;;30.90;17.10;;;;;;;9.39;67.55;100417.31;5077697;28;20114;-89
2022/04/06 04:04:13;;;;;;;45.08;19.30;;;;;;;9.12;67.19;100373.91;5077839;28;20047;-87
2022/04/06 04:06:38;;;;;;;39.03;19.10;;;;;;;9.60;67.08;100441.63;5077332;28;20023;-87
2022/04/06 04:09:05;;;;;;;38.60;19.05;;;;;;;9.55;67.15;100441.97;5077345;28;20410;-86
2022/04/06 04:11:31;;;;;;;53.38;21.38;;;;;;;9.51;66.79;100448.56;5096399;28;20035;-89
2022/04/06 04:13:57;;;;;;;37.65;18.88;;;;;;;9.55;66.57;100438.44;5096115;28;20032;-90
2022/04/06 04:16:25;;;;;;;53.53;19.70;;;;;;;9.56;66.54;100440.16;5078585;28;20124;-89
2022/04/06 04:18:51;;;;;;;39.90;19.45;;;;;;;9.51;66.82;100426.25;5062012;28;20031;-90
2022/04/06 04:21:34;;;;;;;51.17;20.73;;;;;;;9.37;66.67;100394.28;5079809;28;20032;-87
2022/04/06 04:24:08;;;;;;;58.55;22.30;;;;;;;9.50;66.46;100417.34;5063503;28;20131;-88
2022/04/06 04:26:36;;;;;;;49.63;22.67;;;;;;;9.66;65.79;100444.63;5078893;28;20100;-89
2022/04/06 04:29:06;;;;;;;47.17;20.67;;;;;;;9.48;65.47;100445.28;5079690;28;20032;-89
2022/04/06 04:31:31;;;;;;;49.53;23.00;;;;;;;9.40;66.27;100462.00;5086680;28;20032;-89
2022/04/06 04:33:59;;;;;;;57.72;25.02;;;;;;;9.34;66.76;100459.78;5111075;28;20442;-92
2022/04/06 04:36:26;;;;;;;44.85;22.90;;;;;;;9.01;67.21;100446.34;5097564;28;20024;-94
2022/04/06 04:38:52;;;;;;;53.03;24.17;;;;;;;9.15;67.28;100460.38;5075943;28;20521;-80
2022/04/06 04:41:18;;;;;;;55.88;25.50;;;;;;;8.75;67.78;100418.84;5093770;28;20024;-81
2022/04/06 04:43:45;;;;;;;65.15;23.08;;;;;;;8.82;67.82;100421.91;5073965;28;20406;-84
2022/04/06 04:46:11;;;;;;;41.55;23.27;;;;;;;9.11;68.36;100483.03;5074993;28;20034;-82
2022/04/06 04:48:37;;;;;;;47.38;24.73;;;;;;;8.69;68.46;100436.25;5097178;28;20031;-89
2022/04/06 04:51:06;;;;;;;51.05;22.60;;;;;;;8.97;68.39;100482.41;5087569;28;20489;-92
2022/04/06 04:53:33;;;;;;;53.78;22.65;;;;;;;8.93;68.59;100457.66;5077123;28;20038;-84
2022/04/06 04:55:58;;;;;;;49.53;23.55;;;;;;;9.11;68.64;100471.47;5107194;28;20016;-87
2022/04/06 04:58:24;;;;;;;38.88;20.85;;;;;;;9.34;68.41;100492.00;5094652;28;20108;-84
2022/04/06 05:00:53;;;;;;;62.92;23.60;;;;;;;9.30;68.23;100487.84;5092941;28;20584;-86
2022/04/06 05:03:18;;;;;;;43.80;23.83;;;;;;;9.33;68.23;100505.56;5101514;28;20047;-86
2022/04/06 05:05:48;;;;;;;54.65;23.00;;;;;;;9.43;68.22;100502.00;5080456;28;20504;-86
2022/04/06 05:08:15;;;;;;;46.65;23.30;;;;;;;9.62;68.27;100504.97;5077299;28;20076;-89
2022/04/06 05:10:41;;;;;;;70.47;22.80;;;;;;;9.55;68.06;100478.69;5075142;28;20044;-87
2022/04/06 05:13:06;;;;;;;50.75;24.20;;;;;;;9.73;67.70;100482.59;5073649;28;20524;-84
2022/04/06 05:15:32;;;;;;;58.65;26.40;;;;;;;10.06;67.65;100511.28;5057066;28;20013;-87
2022/04/06 05:18:00;;;;;;;62.92;27.25;;;;;;;10.20;67.15;100509.22;5061039;28;20032;-93
2022/04/06 05:20:26;;;;;;;52.33;25.27;;;;;;;10.30;66.69;100512.00;5046783;28;20028;-92
2022/04/06 05:22:52;;;;;;;66.88;26.70;;;;;;;10.25;66.64;100479.25;5041534;28;20156;-88
2022/04/06 05:25:17;;;;;;;52.03;26.88;;;;;;;10.20;66.02;100455.47;5075364;28;20111;-88
2022/04/06 05:27:52;;;;;;;76.78;27.92;;;;;;;10.65;66.44;100509.06;5055872;28;20027;-91
2022/04/06 05:30:20;;;;;;;63.47;26.88;;;;;;;10.84;65.99;100520.84;5077978;28;20082;-84
2022/04/06 05:32:48;;;;;;;61.90;25.73;;;;;;;10.82;65.96;100506.66;5062280;28;20024;-90
2022/04/06 05:35:15;;;;;;;62.97;29.17;;;;;;;10.98;65.80;100516.16;5085339;28;20042;-89
2022/04/06 05:37:44;;;;;;;71.88;30.20;;;;;;;11.21;65.26;100532.03;5083625;28;20056;-89
2022/04/06 05:40:12;;;;;;;57.42;29.83;;;;;;;11.22;64.48;100519.44;5073965;28;20060;-90
2022/04/06 05:42:39;;;;;;;63.35;31.23;;;;;;;11.32;64.41;100528.41;5073719;28;20048;-90
2022/04/06 05:45:07;;;;;;;63.63;29.92;;;;;;;11.40;63.90;100536.72;5073544;28;20025;-90
2022/04/06 05:47:34;;;;;;;59.10;30.30;;;;;;;11.40;63.40;100528.63;5055396;28;20080;-90
2022/04/06 05:50:03;;;;;;;78.95;33.13;;;;;;;11.58;63.05;100542.34;5073746;28;20028;-90
2022/04/06 05:52:30;;;;;;;53.75;28.83;;;;;;;11.74;63.04;100537.34;5074100;28;20032;-90
2022/04/06 05:54:56;;;;;;;59.72;29.13;;;;;;;11.75;62.44;100534.50;5073581;28;20067;-90
2022/04/06 05:57:21;;;;;;;64.93;30.00;;;;;;;11.83;62.76;100532.00;5038564;28;20040;-91
2022/04/06 05:59:47;;;;;;;54.47;29.33;;;;;;;11.90;61.73;100530.47;5056999;28;20518;-90
2022/04/06 06:02:13;;;;;;;63.72;30.17;;;;;;;11.99;61.91;100529.66;5073429;28;20043;-89
2022/04/06 06:04:39;;;;;;;71.55;30.48;;;;;;;11.76;61.54;100474.25;5073970;28;20028;-89
2022/04/06 06:07:05;;;;;;;66.32;30.65;;;;;;;12.16;61.32;100527.31;5073649;28;20059;-91
2022/04/06 06:09:33;;;;;;;68.75;31.90;;;;;;;12.28;61.11;100531.59;5055464;28;20536;-90
2022/04/06 06:12:00;;;;;;;83.05;31.45;;;;;;;12.45;60.93;100539.00;5073443;28;20475;-90
2022/04/06 06:14:27;;;;;;;63.33;30.75;;;;;;;12.30;60.55;100502.63;5038784;28;20033;-90
2022/04/06 06:16:53;;;;;;;76.60;31.45;;;;;;;12.51;60.13;100522.25;5057407;28;20060;-90
2022/04/06 06:19:19;;;;;;;77.22;33.47;;;;;;;12.69;59.55;100541.34;5073369;28;20036;-91
2022/04/06 06:21:45;;;;;;;61.35;30.98;;;;;;;12.65;59.56;100516.47;5038821;28;20040;-89
2022/04/06 06:24:11;;;;;;;65.15;32.05;;;;;;;12.88;59.43;100544.88;5054290;28;20029;-89
2022/04/06 06:26:42;;;;;;;63.13;31.45;;;;;;;13.05;58.93;100536.09;5057458;28;20043;-89
2022/04/06 06:29:08;;;;;;;88.28;33.30;;;;;;;12.73;58.68;100472.56;5084789;28;20028;-88
2022/04/06 06:31:33;;;;;;;80.15;33.75;;;;;;;13.29;58.62;100542.91;5071586;28;20456;-88
2022/04/06 06:33:59;;;;;;;76.55;31.75;;;;;;;13.39;57.83;100552.69;5087699;28;20040;-88
2022/04/06 06:36:25;;;;;;;87.60;34.40;;;;;;;13.42;57.62;100535.38;5067915;28;20029;-85
2022/04/06 06:38:52;;;;;;;79.60;33.03;;;;;;;13.68;57.24;100551.78;5088122;28;20029;-90
2022/04/06 06:41:20;;;;;;;77.18;32.40;;;;;;;13.70;57.12;100549.81;5051998;28;20058;-90
2022/04/06 06:43:48;;;;;;;88.50;34.58;;;;;;;13.62;56.35;100518.97;5064604;28;20032;-90
2022/04/06 06:46:17;;;;;;;61.47;29.70;;;;;;;13.62;55.20;100515.41;5064391;28;20414;-88
2022/04/06 06:48:45;;;;;;;53.30;27.92;;;;;;;14.03;54.65;100558.22;5061463;28;20024;-90
2022/04/06 06:51:11;;;;;;;60.50;25.73;;;;;;;14.03;53.49;100531.19;5060275;28;20469;-89
2022/04/06 06:53:37;;;;;;;55.22;22.85;;;;;;;14.02;52.71;100510.53;5077964;28;20130;-89
2022/04/06 06:56:03;;;;;;;53.20;26.23;;;;;;;14.19;52.19;100514.28;5055984;28;20032;-90
2022/04/06 06:58:28;;;;;;;61.35;26.95;;;;;;;14.52;52.23;100564.28;5056144;28;20429;-90
2022/04/06 07:00:54;;;;;;;54.28;24.73;;;;;;;14.53;51.47;100565.97;5038549;28;20031;-90
2022/04/06 07:03:19;;;;;;;43.28;20.20;;;;;;;14.25;49.90;100523.69;5056010;28;20024;-89
2022/04/06 07:05:47;;;;;;;54.30;20.77;;;;;;;14.59;49.71;100566.22;5043259;28;20035;-89
2022/04/06 07:08:13;;;;;;;60.25;21.67;;;;;;;14.40;48.86;100517.59;5047223;28;20075;-90
2022/04/06 07:10:38;;;;;;;83.43;25.58;;;;;;;14.72;48.20;100552.31;5080421;28;20081;-89
2022/04/06 07:13:04;;;;;;;49.83;22.77;;;;;;;14.95;48.31;100566.28;5074692;28;20116;-89
2022/04/06 07:15:30;;;;;;;45.08;22.13;;;;;;;14.98;48.27;100576.78;5070451;28;20035;-89
2022/04/06 07:17:57;;;;;;;52.15;21.33;;;;;;;15.14;47.75;100577.78;5083215;28;20024;-90
2022/04/06 07:20:25;;;;;;;42.85;19.52;;;;;;;15.03;46.53;100564.47;5066850;28;20040;-91
2022/04/06 07:22:53;;;;;;;53.92;18.83;;;;;;;15.22;46.42;100579.72;5059384;28;20035;-89
2022/04/06 07:25:20;;;;;;;33.75;15.98;;;;;;;15.22;45.24;100591.41;5076709;28;20033;-90
2022/04/06 07:27:46;;;;;;;34.25;15.48;;;;;;;15.07;44.89;100548.78;5077521;28;20084;-90
2022/04/06 07:30:13;;;;;;;35.75;15.60;;;;;;;15.39;44.28;100592.41;5076591;28;20036;-90
2022/04/06 07:32:39;;;;;;;23.52;10.82;;;;;;;15.32;42.34;100580.47;5059492;28;20460;-90
2022/04/06 07:35:06;;;;;;;24.63;13.27;;;;;;;15.56;42.42;100593.44;5076414;28;20474;-90
2022/04/06 07:37:43;;;;;;;37.97;18.55;;;;;;;15.56;44.88;100577.16;5076056;28;20028;-89
2022/04/06 07:40:11;;;;;;;48.35;24.23;;;;;;;15.27;50.39;100599.94;5077084;28;20090;-89
2022/04/06 07:42:38;;;;;;;54.13;25.38;;;;;;;15.20;50.31;100595.28;5058122;28;20050;-91
2022/04/06 07:45:07;;;;;;;62.53;25.88;;;;;;;15.28;50.14;100587.22;5076582;28;20032;-90
2022/04/06 07:47:33;;;;;;;51.88;21.77;;;;;;;15.30;51.57;100603.31;5076692;28;20060;-89
2022/04/06 07:50:01;;;;;;;47.55;22.90;;;;;;;15.30;51.38;100598.75;5059077;28;20078;-89
2022/04/06 07:52:27;;;;;;;42.25;21.85;;;;;;;15.50;51.14;100604.91;5059521;28;20409;-90
2022/04/06 07:54:52;;;;;;;39.90;21.00;;;;;;;15.58;50.31;100596.81;5075804;28;20486;-89
2022/04/06 07:57:22;;;;;;;31.70;21.67;;;;;;;15.57;49.68;100597.81;5076140;28;20024;-89
2022/04/06 07:59:48;;;;;;;39.58;21.23;;;;;;;15.81;49.48;100589.03;5070633;28;20029;-89
2022/04/06 08:02:14;;;;;;;42.22;21.48;;;;;;;15.88;48.88;100573.81;5042706;28;20036;-89
2022/04/06 08:04:42;;;;;;;39.83;18.83;;;;;;;16.11;47.69;100591.25;5083019;28;20054;-88
2022/04/06 08:07:07;;;;;;;34.70;18.05;;;;;;;16.20;46.46;100580.28;5088096;28;20146;-87
2022/04/06 08:09:33;;;;;;;35.10;17.95;;;;;;;16.37;46.39;100588.50;5090750;28;20502;-88
2022/04/06 08:12:03;;;;;;;36.63;17.42;;;;;;;16.44;46.07;100584.13;5087687;28;20033;-89
2022/04/06 08:14:29;;;;;;;38.83;16.58;;;;;;;16.39;45.74;100586.47;5084738;28;20020;-90
2022/04/06 08:16:55;;;;;;;32.90;16.90;;;;;;;16.46;45.65;100569.34;5084543;28;20029;-90
2022/04/06 08:19:25;;;;;;;37.38;16.85;;;;;;;16.61;46.23;100591.31;5062282;28;20036;-88
2022/04/06 08:21:52;;;;;;;33.40;17.05;;;;;;;16.70;46.80;100584.91;5058486;28;20024;-89
2022/04/06 08:24:18;;;;;;;35.58;17.75;;;;;;;16.70;47.59;100587.63;5040388;28;20032;-89
2022/04/06 08:26:44;;;;;;;39.50;16.30;;;;;;;16.78;46.74;100583.09;5062658;28;20056;-88
2022/04/06 08:29:09;;;;;;;31.30;16.17;;;;;;;16.65;48.06;100581.84;5090904;28;20054;-90
2022/04/06 08:31:37;;;;;;;35.65;15.85;;;;;;;16.56;48.83;100586.41;5076091;28;20060;-89
2022/04/06 08:34:06;;;;;;;43.88;15.30;;;;;;;16.47;49.12;100584.66;5074508;28;20039;-90
2022/04/06 08:36:35;;;;;;;38.55;15.88;;;;;;;16.33;48.88;100572.53;5075456;28;20028;-89
2022/04/06 08:39:04;;;;;;;21.45;13.48;;;;;;;16.57;48.20;100582.69;5056402;28;20043;-90
2022/04/06 08:41:30;;;;;;;26.77;14.98;;;;;;;16.59;48.02;100582.50;5057206;28;20043;-89
2022/04/06 08:43:59;;;;;;;37.03;14.05;;;;;;;16.72;47.88;100582.91;5057998;28;20028;-88
2022/04/06 08:46:27;;;;;;;35.08;15.80;;;;;;;16.85;46.68;100577.81;5066459;28;20024;-89
2022/04/06 08:48:52;;;;;;;31.77;14.57;;;;;;;16.67;46.35;100558.94;5083157;28;20036;-89
2022/04/06 08:51:20;;;;;;;28.38;14.38;;;;;;;16.68;46.24;100557.94;5075070;28;20029;-90
2022/04/06 08:53:49;;;;;;;21.17;13.15;;;;;;;16.72;45.95;100561.16;5057031;28;20410;-91
2022/04/06 08:56:15;;;;;;;25.67;12.45;;;;;;;16.92;46.35;100581.56;5076803;28;20028;-89
2022/04/06 08:58:41;;;;;;;30.50;14.55;;;;;;;16.77;46.13;100586.81;5056290;28;20035;-89
2022/04/06 09:01:08;;;;;;;24.20;12.30;;;;;;;16.39;45.39;100575.63;5056654;28;20029;-90
2022/04/06 09:03:35;;;;;;;22.60;12.43;;;;;;;16.29;46.24;100584.75;5039668;28;20051;-89
2022/04/06 09:06:12;;;;;;;35.78;14.38;;;;;;;16.31;46.38;100552.84;5074571;28;20036;-90
2022/04/06 09:08:44;;;;;;;20.35;13.02;;;;;;;16.31;45.49;100539.28;5074457;28;20063;-89
2022/04/06 09:11:18;;;;;;;21.85;12.43;;;;;;;16.70;45.58;100563.19;5056175;28;20024;-90
2022/04/06 09:13:47;;;;;;;25.25;12.57;;;;;;;16.64;46.22;100567.41;5056472;28;20107;-89
2022/04/06 09:16:14;;;;;;;38.35;13.10;;;;;;;16.62;46.35;100544.16;5057294;28;20119;-89
2022/04/06 09:18:45;;;;;;;28.13;15.80;;;;;;;16.49;46.59;100549.16;5076147;28;20139;-90
2022/04/06 09:21:14;;;;;;;22.77;15.18;;;;;;;16.53;47.80;100572.28;5080235;28;20107;-88
2022/04/06 09:23:40;;;;;;;27.73;15.40;;;;;;;16.26;48.66;100560.63;5067293;28;20024;-90
2022/04/06 09:26:08;;;;;;;26.23;16.65;;;;;;;16.27;48.63;100573.19;5059440;28;20478;-90
2022/04/06 09:28:38;;;;;;;20.58;14.77;;;;;;;16.19;48.76;100580.44;5060741;28;20094;-87
2022/04/06 09:31:04;;;;;;;32.75;15.52;;;;;;;16.07;48.61;100577.16;5064985;28;20028;-88
2022/04/06 09:33:30;;;;;;;22.15;12.88;;;;;;;15.46;50.00;100520.31;5068119;28;20106;-86
2022/04/06 09:35:57;;;;;;;18.67;12.13;;;;;;;15.58;50.07;100558.88;5052139;28;20092;-88
2022/04/06 09:38:31;;;;;;;23.88;13.73;;;;;;;15.78;50.38;100573.91;5083180;28;20028;-88
2022/04/06 09:41:05;;;;;;;27.17;12.35;;;;;;;15.73;50.83;100568.13;5083729;28;20048;-89
2022/04/06 09:43:35;;;;;;;17.48;12.10;;;;;;;15.94;50.74;100563.19;5084370;28;20056;-90
2022/04/06 09:49:19;;;;;;;22.88;12.82;;;;;;;16.09;50.64;100563.41;5077001;28;20039;-88
2022/04/06 09:51:50;;;;;;;22.10;10.93;;;;;;;15.89;50.07;100522.13;5076867;28;20036;-87
2022/04/06 09:54:18;;;;;;;24.13;12.37;;;;;;;16.15;49.69;100536.50;5059192;28;20394;-91
2022/04/06 09:56:45;;;;;;;21.05;11.35;;;;;;;16.14;49.91;100551.09;5075846;28;20040;-90
2022/04/06 09:59:14;;;;;;;19.63;11.93;;;;;;;16.18;50.08;100547.00;5076436;28;20051;-90
2022/04/06 10:01:52;;;;;;;16.25;10.88;;;;;;;16.22;50.08;100537.53;5055851;28;20528;-88
2022/04/06 10:04:22;;;;;;;25.42;10.48;;;;;;;16.23;50.61;100538.41;5075702;28;20103;-91
2022/04/06 10:06:50;;;;;;;19.85;9.80;;;;;;;16.44;50.07;100540.69;5041539;28;20131;-89
2022/04/06 10:09:17;;;;;;;21.48;10.70;;;;;;;16.59;49.01;100548.06;5057954;28;20052;-90
2022/04/06 10:11:43;;;;;;;16.40;9.32;;;;;;;16.68;48.47;100546.22;5056817;28;20036;-89
2022/04/06 10:14:11;;;;;;;21.58;9.85;;;;;;;16.45;48.80;100491.63;5057670;28;20497;-89
2022/04/06 10:16:38;;;;;;;16.40;11.02;;;;;;;16.69;48.47;100556.94;5056432;28;20158;-89
2022/04/06 10:19:07;;;;;;;17.27;10.35;;;;;;;16.49;48.65;100513.88;5038808;28;20032;-89
2022/04/06 10:21:41;;;;;;;14.95;10.20;;;;;;;16.81;48.06;100557.47;5062300;28;20127;-88
2022/04/06 10:24:36;;;;;;;19.67;9.15;;;;;;;16.48;48.62;100552.91;5076336;28;20072;-88
2022/04/06 10:27:29;;;;;;;21.75;9.77;;;;;;;16.34;48.09;100540.81;5086459;28;20051;-89
2022/04/06 10:30:16;;;;;;;14.73;7.73;;;;;;;16.10;48.57;100547.00;5078019;28;20107;-88
2022/04/06 10:32:44;;;;;;;15.90;8.38;;;;;;;16.02;49.22;100541.53;5074469;28;20112;-89
2022/04/06 10:35:22;;;;;;;11.90;8.23;;;;;;;16.03;49.06;100547.78;5074141;28;20044;-88
2022/04/06 10:37:49;;;;;;;21.15;9.85;;;;;;;16.05;49.49;100556.63;5074639;28;20111;-89
2022/04/06 10:40:15;;;;;;;21.15;8.63;;;;;;;16.08;49.71;100551.75;5075235;28;20024;-89
2022/04/06 10:42:45;;;;;;;19.83;9.52;;;;;;;16.09;49.20;100531.72;5077579;28;20029;-90
2022/04/06 10:45:29;;;;;;;16.67;8.48;;;;;;;16.26;49.39;100560.63;5079570;28;20036;-91
2022/04/06 10:48:20;;;;;;;13.77;8.10;;;;;;;16.34;49.39;100547.09;5079520;28;20039;-92
2022/04/06 10:50:48;;;;;;;17.13;8.88;;;;;;;16.49;49.43;100558.16;5055946;28;20104;-88
2022/04/06 10:53:27;;;;;;;15.02;8.50;;;;;;;16.44;49.18;100563.25;5079070;28;20035;-89
2022/04/06 10:56:12;;;;;;;12.98;9.18;;;;;;;16.01;50.12;100531.69;5044134;28;20111;-89
2022/04/06 10:59:05;;;;;;;14.63;8.88;;;;;;;16.11;51.48;100556.84;5064048;28;20040;-88
2022/04/06 11:01:34;;;;;;;82.45;58.33;;;;;;;16.07;51.15;100544.59;5087082;28;20024;-87
2022/04/06 11:04:04;;;;;;;14.25;9.73;;;;;;;16.21;51.86;100562.13;5087075;28;20069;-89
2022/04/06 11:06:48;;;;;;;20.80;10.57;;;;;;;16.27;52.01;100556.03;5085319;28;20406;-90
2022/04/06 11:12:23;;;;;;;14.10;10.23;;;;;;;16.26;49.55;100555.22;5065128;28;20516;-89
2022/04/06 11:14:59;;;;;;;20.38;11.85;;;;;;;15.85;50.24;100561.44;5079277;28;20027;-88
2022/04/06 11:17:32;;;;;;;21.02;11.18;;;;;;;15.70;50.65;100552.19;5078907;28;20052;-89
2022/04/06 11:19:59;;;;;;;23.70;10.45;;;;;;;15.63;50.32;100553.81;5076850;28;20043;-88
2022/04/06 11:22:25;;;;;;;19.13;10.55;;;;;;;15.83;50.63;100549.91;5058411;28;20097;-88
2022/04/06 11:24:55;;;;;;;18.00;10.77;;;;;;;16.06;49.08;100548.31;5077408;28;20021;-89
2022/04/06 11:27:35;;;;;;;21.88;10.80;;;;;;;16.05;48.30;100549.34;5059502;28;20063;-89